Date,TemperatureHighF,TemperatureAvgF,TemperatureLowF,DewpointHighF,DewpointAvgF,DewpointLowF,HumidityHigh,HumidityAvg,HumidityLow,PressureMaxIn,PressureMinIn,WindSpeedMaxMPH,WindSpeedAvgMPH,GustSpeedMaxMPH,PrecipitationSumIn
2013-1-1,39.6,30.8,20.1,25.7,21.4,17.3,92,69,44,30.41,30.30,6,1,11,0.01
2013-1-2,47.7,37.8,29.3,23.6,20.3,15.6,65,50,36,30.32,30.15,8,2,14,0.00
2013-1-3,41.3,34.9,28.1,31.7,24.8,20.1,92,68,50,30.35,30.13,9,3,15,0.00
2013-1-4,41.9,31.6,22.2,27.8,24.9,19.7,93,78,54,30.47,30.35,6,1,12,0.00
2013-1-5,51.4,37.3,23.5,28.8,18.8,7.3,86,52,18,30.51,30.39,5,1,10,0.00
2013-1-6,50.3,40.3,31.9,25.9,18.2,12.0,67,42,29,30.39,30.07,7,2,12,0.00
2013-1-7,52.6,41.7,29.5,28.0,24.6,16.2,78,53,26,30.08,29.88,9,1,15,0.00
2013-1-8,57.4,45.3,35.2,31.4,23.1,15.8,70,44,21,30.16,29.93,11,4,22,0.00
2013-1-9,57.9,45.7,34.4,24.7,16.6,11.5,57,33,16,30.31,30.14,8,2,14,0.00
2013-1-10,58.9,45.1,32.7,27.9,23.2,17.5,70,45,23,30.16,29.92,13,4,23,0.00
2013-1-11,46.9,34.0,19.4,28.4,15.9,7.7,84,49,29,30.08,29.90,17,7,31,0.00
2013-1-12,35.1,24.7,11.7,11.0,5.6,1.3,74,46,26,30.31,30.07,9,2,21,0.00
2013-1-13,41.1,26.0,12.0,8.2,2.4,-3.9,68,38,18,30.32,30.16,7,2,12,0.00
2013-1-14,35.6,26.4,17.9,4.3,1.7,-3.6,48,35,21,30.32,30.19,12,4,21,0.00
2013-1-15,36.1,24.6,7.8,5.7,-0.6,-8.0,71,36,15,30.58,30.32,8,2,14,0.00
2013-1-16,48.7,37.2,25.4,9.4,1.8,-4.2,29,22,17,30.58,30.41,7,3,13,0.00
2013-1-17,55.4,43.7,35.1,15.0,11.1,7.3,38,27,19,30.43,30.30,10,3,18,0.00
2013-1-18,58.2,46.1,28.1,17.7,13.6,9.5,47,28,17,30.38,30.25,6,1,15,0.00
2013-1-19,64.8,50.4,31.6,23.7,17.9,13.1,48,29,17,30.36,30.22,5,2,12,0.00
2013-1-20,67.0,53.1,42.0,30.4,25.0,18.7,43,34,25,30.26,30.07,5,1,10,0.00
2013-1-21,66.1,55.2,45.5,31.5,27.3,25.2,45,35,26,30.16,30.06,7,2,11,0.00
2013-1-22,67.5,52.1,34.8,28.8,24.7,18.9,64,37,19,30.25,30.15,7,1,13,0.00
2013-1-23,66.6,53.9,39.6,29.9,25.3,20.7,54,34,23,30.30,30.19,7,1,13,0.00
2013-1-24,65.7,54.5,43.8,40.4,34.1,27.8,62,47,27,30.29,30.20,5,1,11,0.00
2013-1-25,65.9,55.5,44.5,48.9,39.9,35.8,93,57,41,30.24,30.05,4,1,8,0.02
2013-1-26,60.9,51.6,46.0,52.7,47.2,40.2,98,86,47,30.04,29.92,15,5,26,0.28
2013-1-27,57.8,49.3,43.7,46.9,43.4,41.4,96,81,57,30.07,29.99,10,4,18,0.17
2013-1-28,52.8,43.0,30.9,41.4,37.0,29.2,94,80,48,30.02,29.90,17,8,35,0.05
2013-1-29,38.8,31.9,26.3,29.3,22.3,16.2,95,70,42,30.35,30.01,15,8,28,0.11
2013-1-30,48.3,35.4,26.4,23.9,20.5,14.0,78,57,31,30.50,30.35,5,1,21,0.00
2013-1-31,53.5,42.3,30.0,26.7,22.4,18.5,69,46,31,30.40,30.25,6,2,14,0.00
2013-2-1,64.5,46.7,33.3,26.4,21.7,14.9,60,39,15,30.34,30.23,6,1,12,0.00
2013-2-2,64.5,50.8,33.7,24.6,21.4,13.5,63,35,14,30.36,30.23,6,2,11,0.00
2013-2-3,58.8,51.5,42.2,40.5,27.5,17.4,66,42,21,30.23,30.01,12,1,20,0.01
2013-2-4,60.7,51.3,39.5,36.2,34.0,30.4,73,52,39,30.09,29.98,7,1,11,0.00
2013-2-5,63.7,51.0,34.7,39.7,34.4,30.2,89,56,30,30.09,29.96,7,2,14,0.00
2013-2-6,62.1,49.9,36.2,37.5,33.0,27.4,85,55,27,30.08,29.94,10,3,20,0.00
2013-2-7,60.5,47.3,34.0,34.7,30.3,25.8,86,55,28,30.17,30.06,6,1,10,0.00
2013-2-8,60.5,48.2,32.9,27.5,17.5,-6.6,64,34,7,30.06,29.82,15,4,24,0.00
2013-2-9,46.4,37.3,29.1,30.5,23.4,15.8,90,58,37,30.13,29.78,14,7,28,0.02
2013-2-10,51.6,36.2,19.4,23.3,14.0,1.2,85,46,13,30.18,30.05,10,2,19,0.00
2013-2-11,47.1,35.5,27.1,29.9,18.4,8.7,95,54,30,30.22,30.03,13,6,22,0.00
2013-2-12,44.3,32.6,23.4,30.2,21.0,5.3,95,68,21,30.38,30.22,9,2,15,0.04
2013-2-13,54.0,39.4,27.4,19.7,15.4,9.3,59,40,19,30.35,30.19,5,1,10,0.00
2013-2-14,59.3,42.3,24.9,21.7,17.4,7.7,71,41,13,30.26,30.15,8,2,14,0.00
2013-2-15,59.4,48.0,37.6,21.5,14.1,-2.4,45,28,8,30.36,30.20,12,4,20,0.00
2013-2-16,61.9,47.8,29.1,16.5,12.4,8.1,50,26,12,30.40,30.17,9,3,19,0.00
2013-2-17,67.2,51.1,37.4,11.1,7.5,2.4,29,18,9,30.15,29.90,15,5,28,0.00
2013-2-18,61.2,49.6,32.2,14.2,10.4,2.6,40,22,11,30.10,29.99,9,3,16,0.00
2013-2-19,57.0,46.8,32.0,37.4,24.1,8.9,79,43,22,30.02,29.79,18,7,31,0.00
2013-2-20,44.2,34.2,25.0,32.1,24.8,14.8,94,72,32,30.02,29.68,19,9,30,0.02
2013-2-21,41.4,31.8,17.7,33.0,26.3,15.5,95,81,55,30.22,30.03,8,2,14,0.15
2013-2-22,48.6,37.9,29.5,30.9,27.7,24.4,90,68,46,30.25,30.13,11,4,17,0.00
2013-2-23,60.9,41.5,22.4,27.6,22.9,18.1,86,52,19,30.25,29.95,9,2,19,0.00
2013-2-24,45.4,37.5,25.3,24.3,14.0,0.8,57,39,18,30.16,29.84,20,8,34,0.00
2013-2-25,50.9,36.0,20.6,15.3,11.9,8.0,63,39,19,30.34,30.16,7,3,15,0.00
2013-2-26,57.9,41.7,23.0,18.1,11.2,2.7,62,32,11,30.19,30.03,13,4,21,0.00
2013-2-27,54.6,42.0,28.8,13.8,6.7,0.9,49,25,14,30.28,30.16,7,3,14,0.00
2013-2-28,56.4,44.8,34.3,7.5,2.4,-4.8,29,18,8,30.40,30.25,11,4,18,0.00
2013-3-1,65.2,49.7,30.7,17.9,11.6,4.3,38,22,14,30.42,30.29,10,4,17,0.00
2013-3-2,73.7,54.9,37.2,22.6,16.7,8.4,47,25,8,30.39,30.19,8,2,16,0.00
2013-3-3,74.9,58.9,40.7,20.9,13.5,-5.0,40,19,4,30.19,29.95,14,5,24,0.00
2013-3-4,66.4,58.0,44.3,34.3,19.9,3.3,39,24,11,30.07,29.81,20,9,34,0.00
2013-3-5,67.2,55.0,36.4,27.5,23.8,19.6,58,32,17,30.17,30.06,13,5,22,0.00
2013-3-6,74.5,61.8,52.9,31.1,22.2,11.9,30,22,14,30.08,29.88,13,5,20,0.00
2013-3-7,69.3,58.0,44.9,28.8,23.8,19.5,45,28,16,29.96,29.87,12,5,22,0.00
2013-3-8,56.7,46.9,33.6,43.9,34.9,22.8,94,66,34,29.97,29.69,21,9,32,0.33
2013-3-9,44.0,37.5,31.8,34.7,30.4,26.8,94,76,57,30.19,29.96,13,7,27,0.02
2013-3-10,54.0,42.4,33.8,35.2,29.7,20.9,91,64,28,30.26,30.17,8,3,17,0.00
2013-3-11,66.3,49.5,35.4,30.5,23.6,15.2,68,41,16,30.28,30.11,7,3,10,0.00
2013-3-12,70.5,54.0,35.7,31.9,22.0,7.9,66,34,9,30.18,30.09,8,3,13,0.00
2013-3-13,76.1,61.0,41.9,23.8,18.1,11.5,46,21,9,30.20,30.08,8,3,14,0.00
2013-3-14,80.0,63.9,44.8,25.6,15.3,7.9,41,18,7,30.17,30.03,8,3,13,0.00
2013-3-15,82.9,65.5,43.4,23.2,14.6,0.8,36,17,4,30.08,29.90,13,5,21,0.00
2013-3-16,78.3,66.7,56.4,21.8,12.8,-1.0,22,13,5,29.91,29.71,15,8,27,0.00
2013-3-17,73.7,61.5,43.4,23.4,16.8,6.6,27,18,11,29.93,29.77,17,7,28,0.00
2013-3-18,73.5,60.4,48.6,32.1,22.6,13.7,45,25,11,30.00,29.90,11,4,18,0.00
2013-3-19,70.3,59.8,50.1,30.5,25.0,19.9,42,27,17,30.06,29.92,12,6,22,0.00
2013-3-20,75.3,59.7,43.0,26.9,24.8,16.7,49,28,11,30.10,29.88,11,5,18,0.00
2013-3-21,72.3,61.4,53.7,31.1,25.8,16.9,37,27,14,29.88,29.71,12,6,21,0.00
2013-3-22,71.0,60.5,52.7,30.9,25.5,18.1,38,27,14,29.80,29.66,17,8,27,0.00
2013-3-23,65.0,54.3,38.6,28.3,18.7,8.4,55,27,12,30.02,29.80,16,6,29,0.00
2013-3-24,67.4,55.9,46.4,9.3,4.6,-1.3,20,13,8,30.04,29.87,13,6,22,0.00
2013-3-25,69.2,53.2,35.1,15.5,11.3,5.1,34,20,11,30.06,29.94,9,3,22,0.00
2013-3-26,75.4,59.2,38.9,15.6,12.3,9.2,35,17,8,30.08,29.91,10,4,18,0.00
2013-3-27,74.1,62.7,45.7,26.2,17.8,8.1,32,19,9,30.00,29.89,11,5,23,0.00
2013-3-28,74.9,62.6,44.5,32.0,23.5,15.9,48,24,12,30.06,29.87,9,4,18,0.00
2013-3-29,77.0,65.0,53.9,27.1,21.6,17.4,30,20,11,30.08,29.95,9,4,18,0.00
2013-3-30,73.8,62.8,47.2,26.8,19.9,13.1,31,20,12,30.05,29.91,11,4,20,0.00
2013-3-31,75.8,63.1,44.9,27.4,24.2,21.1,44,24,14,30.03,29.89,10,4,17,0.00
2013-4-1,77.3,64.0,51.9,32.8,25.1,12.8,42,25,9,29.96,29.82,15,6,24,0.00
2013-4-2,70.7,58.2,43.2,26.4,18.0,9.2,41,23,10,29.97,29.83,13,6,25,0.00
2013-4-3,72.4,60.0,39.5,24.9,20.2,12.0,42,22,10,30.06,29.96,11,4,20,0.00
2013-4-4,76.6,63.9,44.9,27.5,18.2,7.9,42,20,8,30.10,29.94,9,4,16,0.00
2013-4-5,80.1,68.4,55.7,27.8,20.4,11.9,29,17,9,29.98,29.79,15,7,26,0.00
2013-4-6,77.6,65.0,54.0,31.7,28.1,23.7,41,26,14,29.93,29.79,14,6,23,0.00
2013-4-7,77.4,64.6,44.9,32.7,27.1,20.2,55,26,12,29.86,29.72,13,6,24,0.00
2013-4-8,73.1,61.0,51.0,36.6,31.3,24.1,52,34,18,29.73,29.39,24,13,39,0.00
2013-4-9,55.4,46.5,40.0,37.2,27.3,19.1,84,49,26,29.97,29.49,22,9,34,0.03
2013-4-10,59.8,47.9,32.5,28.0,23.2,19.3,65,40,24,30.07,29.95,12,6,21,0.00
2013-4-11,71.4,55.3,35.7,27.1,21.7,9.0,63,31,9,30.08,29.83,12,4,19,0.00
2013-4-12,71.6,57.5,41.3,23.3,20.6,17.5,40,25,14,29.87,29.75,10,4,23,0.00
2013-4-13,75.1,62.2,45.2,24.7,21.5,18.1,38,22,13,29.87,29.72,11,6,24,0.00
2013-4-14,74.9,62.5,50.1,34.2,27.6,16.9,44,29,12,29.79,29.68,13,8,25,0.00
2013-4-15,77.5,62.8,49.8,35.5,29.9,19.4,53,32,12,29.79,29.72,16,9,26,0.00
2013-4-16,75.3,63.4,51.3,41.7,25.5,8.8,56,28,8,29.81,29.70,17,10,28,0.00
2013-4-17,61.9,53.8,41.2,42.6,25.9,8.8,64,37,19,30.01,29.71,20,9,38,0.00
2013-4-18,61.7,49.7,36.7,12.7,5.8,-6.6,31,18,6,30.21,30.00,10,4,19,0.00
2013-4-19,69.8,54.7,42.2,6.1,-0.3,-9.3,20,11,4,30.24,30.01,10,5,19,0.00
2013-4-20,76.1,62.9,51.8,15.1,4.0,-3.5,18,10,6,30.01,29.88,14,6,22,0.00
2013-4-21,80.7,62.4,42.3,16.7,12.9,4.4,29,16,6,30.06,29.93,9,4,17,0.00
2013-4-22,83.2,69.2,53.0,18.0,12.0,5.9,20,12,6,29.96,29.81,13,6,23,0.00
2013-4-23,80.3,67.3,54.9,21.3,16.3,11.2,25,15,8,29.91,29.73,15,6,26,0.00
2013-4-24,81.7,69.2,53.8,25.5,19.3,11.8,27,16,8,29.91,29.78,9,4,16,0.00
2013-4-25,78.1,66.7,54.1,26.5,19.9,4.5,31,18,6,29.97,29.79,19,8,25,0.00
2013-4-26,79.1,62.2,40.0,27.8,14.8,-3.3,43,19,4,30.11,29.97,7,3,12,0.00
2013-4-27,81.1,69.4,47.9,26.2,16.9,9.7,33,15,7,30.07,29.91,9,4,23,0.00
2013-4-28,83.7,69.6,50.1,20.3,12.7,3.6,26,13,5,29.93,29.77,10,3,21,0.00
2013-4-29,86.1,73.6,54.9,14.1,9.2,2.6,17,9,4,29.83,29.67,9,4,33,0.00
2013-4-30,85.1,71.9,49.5,24.3,17.4,10.0,29,14,7,29.80,29.69,11,6,20,0.00
2013-5-1,81.4,68.3,50.7,24.4,18.3,7.4,32,16,6,29.99,29.78,10,5,19,0.00
2013-5-2,76.9,65.0,52.2,25.2,20.3,11.9,29,19,12,30.16,29.99,13,7,22,0.00
2013-5-3,73.4,59.5,44.8,21.4,15.9,10.4,36,20,10,30.16,29.93,15,6,21,0.00
2013-5-4,81.1,67.1,48.6,32.5,21.9,15.6,29,19,10,29.92,29.75,11,5,20,0.00
2013-5-5,78.7,67.8,56.8,34.6,27.5,15.4,36,23,10,29.93,29.80,14,8,24,0.00
2013-5-6,76.3,63.2,49.6,40.2,34.8,29.2,61,37,18,29.99,29.87,12,5,20,0.00
2013-5-7,74.5,62.5,51.8,39.1,31.3,23.2,57,33,16,30.01,29.88,13,6,22,0.00
2013-5-8,75.0,61.3,48.6,33.5,28.4,19.6,54,31,13,30.04,29.93,13,6,25,0.00
2013-5-9,74.6,62.7,49.6,38.4,30.5,21.3,61,33,14,30.01,29.90,11,4,18,0.00
2013-5-10,73.2,60.7,48.3,40.5,31.4,25.8,48,34,19,30.13,29.96,10,3,18,0.03
2013-5-11,73.5,62.3,46.7,37.8,34.8,31.6,61,37,24,30.16,30.09,12,5,21,0.00
2013-5-12,76.7,64.9,50.9,37.2,30.9,24.5,55,30,15,30.19,30.03,16,7,27,0.00
2013-5-13,80.2,67.5,53.7,34.8,24.6,12.1,39,22,8,30.13,29.98,16,5,25,0.00
2013-5-14,82.1,68.7,47.3,37.6,31.7,24.9,52,27,14,30.04,29.89,17,4,32,0.00
2013-5-15,86.2,74.2,61.5,33.9,32.1,29.4,33,22,14,29.99,29.82,13,7,23,0.00
2013-5-16,86.7,74.7,63.8,31.8,25.0,14.2,27,17,8,29.91,29.76,10,6,20,0.00
2013-5-17,83.1,72.0,56.4,31.1,23.5,5.0,34,18,5,29.88,29.78,12,5,21,0.00
2013-5-18,81.8,69.5,55.9,32.8,25.8,13.2,40,22,8,29.92,29.81,13,6,25,0.00
2013-5-19,83.7,68.8,46.4,34.1,26.9,14.0,54,24,8,29.91,29.77,12,6,23,0.00
2013-5-20,82.9,70.2,57.8,37.1,28.3,19.3,38,22,12,29.88,29.76,14,6,26,0.00
2013-5-21,85.6,70.5,46.1,23.0,15.9,8.1,32,14,6,29.93,29.78,11,5,20,0.00
2013-5-22,88.3,75.4,56.2,24.4,18.6,12.4,22,12,7,29.81,29.67,10,5,17,0.00
2013-5-23,87.7,74.5,57.1,30.7,19.9,7.1,31,15,5,29.84,29.74,12,5,21,0.00
2013-5-24,87.7,74.0,53.9,41.1,22.9,-0.7,54,20,3,29.90,29.82,10,4,20,0.00
2013-5-25,87.0,74.6,58.4,30.8,21.1,12.7,31,15,7,29.93,29.82,12,5,22,0.00
2013-5-26,87.1,72.9,51.4,30.4,16.7,6.3,30,14,5,29.94,29.85,11,5,21,0.00
2013-5-27,88.8,73.3,52.1,25.8,13.2,-0.3,27,12,3,29.89,29.72,10,4,18,0.00
2013-5-28,85.4,71.8,49.0,29.2,16.9,6.0,31,14,5,29.76,29.60,13,6,23,0.00
2013-5-29,83.7,70.9,56.7,33.3,28.5,24.7,36,22,12,29.77,29.67,13,5,41,0.00
2013-5-30,87.9,74.2,58.2,50.8,36.8,27.7,64,29,12,29.83,29.74,11,5,21,0.00
2013-5-31,90.9,76.2,58.6,51.1,40.7,33.5,68,31,14,29.85,29.73,13,5,22,0.00
2013-6-1,93.9,79.2,57.6,37.8,30.5,18.7,42,19,7,29.82,29.69,9,3,15,0.00
2013-6-2,95.7,83.3,69.3,40.6,33.6,25.5,30,18,9,29.75,29.61,12,5,22,0.00
2013-6-3,92.3,80.0,60.2,36.4,27.2,16.9,35,16,7,29.79,29.69,11,5,21,0.00
2013-6-4,91.6,79.8,65.0,40.5,34.1,26.7,37,20,11,29.83,29.72,11,5,21,0.00
2013-6-5,92.1,79.4,67.4,40.2,25.2,11.0,27,16,5,29.84,29.71,12,5,22,0.00
2013-6-6,92.5,80.4,62.8,27.4,17.7,1.9,19,11,3,29.80,29.68,9,4,16,0.00
2013-6-7,96.1,82.3,60.7,32.5,27.1,18.3,26,15,6,29.76,29.60,9,3,17,0.00
2013-6-8,95.0,82.8,67.0,31.7,26.2,19.5,27,13,7,29.78,29.68,13,7,26,0.00
2013-6-9,95.3,82.6,67.1,39.3,28.8,19.7,32,16,8,29.83,29.73,10,7,20,0.00
2013-6-10,97.4,84.4,65.5,30.5,26.0,19.9,22,13,8,29.84,29.71,11,5,17,0.00
2013-6-11,99.6,86.1,70.1,29.6,25.9,20.3,20,12,7,29.82,29.68,12,6,21,0.00
2013-6-12,100.1,85.5,63.3,40.3,30.2,24.1,25,15,8,29.84,29.70,13,6,22,0.00
2013-6-13,95.1,82.5,70.5,47.6,40.4,29.5,42,24,14,29.82,29.69,11,6,20,0.00
2013-6-14,91.8,79.1,69.0,54.1,47.3,39.7,54,34,20,29.81,29.69,12,6,23,0.00
2013-6-15,90.5,76.7,64.2,54.9,50.5,44.2,58,41,26,29.89,29.78,17,4,25,0.00
2013-6-16,91.7,78.8,62.0,54.0,46.3,30.6,64,35,16,29.94,29.80,11,4,19,0.00
2013-6-17,94.8,82.1,67.1,33.3,27.2,19.9,24,14,8,29.88,29.75,12,6,26,0.00
2013-6-18,95.0,82.8,64.5,27.4,18.2,4.5,21,10,3,29.82,29.69,12,5,35,0.00
2013-6-19,95.9,82.7,70.6,35.8,24.5,14.5,18,12,7,29.75,29.63,15,6,27,0.00
2013-6-20,95.3,80.3,57.0,36.0,22.8,4.7,27,14,4,29.80,29.71,14,5,25,0.00
2013-6-21,95.3,81.4,61.7,41.6,31.4,16.6,40,19,6,29.82,29.73,15,5,27,0.00
2013-6-22,94.6,80.9,66.8,37.4,27.9,18.4,31,16,7,29.83,29.70,14,6,23,0.00
2013-6-23,91.4,79.6,64.0,36.8,31.2,24.2,28,18,11,29.80,29.67,16,6,27,0.00
2013-6-24,91.4,80.0,67.3,38.8,34.3,28.0,28,20,15,29.82,29.72,13,6,23,0.00
2013-6-25,93.2,79.5,57.9,41.6,28.7,19.1,49,19,8,29.90,29.81,11,5,23,0.00
2013-6-26,93.6,82.2,70.3,31.4,24.9,17.7,22,13,9,29.97,29.82,10,6,16,0.00
2013-6-27,98.2,84.2,66.1,36.8,30.6,17.8,26,15,9,29.94,29.79,13,8,21,0.00
2013-6-28,97.4,85.4,70.4,37.6,31.5,27.4,21,15,10,29.86,29.74,13,5,24,0.00
2013-6-29,97.9,86.3,72.9,42.9,37.6,33.8,25,18,12,29.83,29.67,9,4,21,0.00
2013-6-30,99.7,84.5,68.9,58.9,45.5,38.6,68,29,14,29.78,29.57,16,6,25,0.00
2013-7-1,94.4,81.1,65.9,57.9,51.9,44.9,75,39,19,29.93,29.72,20,5,27,0.08
2013-7-2,88.4,74.5,61.4,59.9,55.4,51.0,86,54,31,29.98,29.78,16,6,32,0.24
2013-7-3,92.1,77.4,61.5,61.0,53.7,49.1,81,48,24,29.91,29.68,13,4,24,0.05
2013-7-4,93.7,78.6,63.2,60.6,55.1,48.5,87,49,23,29.79,29.65,13,5,23,0.00
2013-7-5,87.3,73.9,65.5,61.2,58.0,52.0,81,59,35,29.84,29.68,15,4,23,0.01
2013-7-6,93.9,78.7,63.0,60.7,56.7,52.0,83,50,25,29.80,29.65,9,3,15,0.00
2013-7-7,96.3,79.8,68.4,61.9,55.4,49.4,67,45,22,29.82,29.63,12,4,20,0.00
2013-7-8,92.9,79.6,67.9,61.1,57.5,53.2,78,49,27,29.89,29.77,11,5,20,0.00
2013-7-9,91.7,76.3,62.6,65.7,60.9,56.4,93,62,33,29.93,29.74,17,6,28,0.91
2013-7-10,85.2,72.2,63.6,67.8,63.6,58.7,95,76,42,29.94,29.80,13,4,22,0.18
2013-7-11,84.6,73.0,62.2,66.4,62.3,57.8,94,71,43,29.94,29.79,13,4,21,0.03
2013-7-12,86.0,75.0,61.7,64.7,60.4,55.4,95,63,38,29.92,29.75,11,4,22,0.52
2013-7-13,88.8,76.0,65.4,64.2,60.4,54.8,85,61,32,29.88,29.73,16,4,24,0.29
2013-7-14,91.9,77.8,65.2,65.8,61.2,55.6,90,59,31,29.89,29.71,14,4,23,0.00
2013-7-15,90.9,76.6,63.1,63.6,60.3,57.0,96,59,33,29.84,29.65,12,5,20,0.84
2013-7-16,72.9,64.4,62.3,64.4,62.1,61.0,97,93,70,30.03,29.83,8,3,19,1.43
2013-7-17,82.3,71.4,61.3,61.9,58.3,52.0,96,66,37,30.07,29.85,10,4,24,0.01
2013-7-18,76.2,68.9,59.5,59.7,58.1,56.1,91,69,53,29.98,29.87,11,4,19,0.00
2013-7-19,73.6,68.4,64.8,64.5,61.5,58.7,94,79,66,29.94,29.81,8,3,15,0.22
2013-7-20,78.9,69.6,61.3,64.9,61.4,58.9,93,76,55,29.87,29.79,10,3,14,0.00
2013-7-21,82.6,72.2,63.8,65.0,62.5,58.0,93,73,44,29.89,29.78,10,4,17,0.03
2013-7-22,84.5,73.3,65.6,64.2,62.1,58.2,91,70,43,29.92,29.82,9,5,16,0.00
2013-7-23,85.3,77.7,67.0,63.6,61.2,59.5,78,57,43,29.92,29.80,9,6,17,0.00
2013-7-24,81.9,73.6,65.1,66.7,64.4,60.9,92,74,53,29.92,29.83,7,3,14,0.00
2013-7-25,82.5,72.2,65.9,66.8,64.3,60.0,95,77,52,29.96,29.87,15,3,24,0.00
2013-7-26,87.1,76.7,67.7,66.5,63.3,60.5,83,64,45,30.04,29.92,14,4,24,0.00
2013-7-27,84.2,71.3,64.9,66.8,62.3,59.4,91,74,45,29.98,29.83,12,2,22,0.05
2013-7-28,88.5,76.1,64.5,63.8,59.1,52.7,86,58,30,29.86,29.75,10,3,18,0.01
2013-7-29,88.9,76.4,60.2,63.4,55.2,49.1,92,52,29,29.97,29.82,7,3,14,0.00
2013-7-30,91.9,80.3,69.3,55.7,52.9,50.2,60,40,26,30.01,29.88,8,4,14,0.00
2013-7-31,89.0,77.8,68.2,64.4,58.2,53.2,78,53,31,29.95,29.85,9,2,13,0.00
2013-8-1,79.2,69.1,62.7,65.9,60.8,55.9,95,76,49,30.02,29.88,12,2,16,0.70
2013-8-2,82.0,70.6,61.4,69.4,62.0,56.6,93,75,52,29.98,29.89,14,3,23,0.02
2013-8-3,88.1,75.6,59.6,64.0,58.6,52.2,89,58,31,29.97,29.85,7,2,11,0.00
2013-8-4,85.5,76.0,64.8,63.2,58.9,53.9,84,57,38,29.93,29.82,10,4,14,0.06
2013-8-5,80.8,69.6,60.4,64.5,59.5,54.0,95,72,40,30.02,29.84,15,5,24,0.52
2013-8-6,76.9,67.0,59.5,64.9,60.5,57.3,94,80,54,29.98,29.91,12,3,22,0.08
2013-8-7,81.5,70.9,58.8,62.1,56.3,49.3,95,63,38,30.01,29.90,9,5,20,0.00
2013-8-8,85.8,73.9,57.8,59.1,50.6,40.2,84,47,21,29.93,29.82,7,2,19,0.00
2013-8-9,87.1,75.2,57.6,55.8,49.7,41.3,67,43,27,29.89,29.80,8,3,15,0.00
2013-8-10,87.0,74.2,61.5,63.4,51.6,40.4,76,48,26,29.95,29.84,11,4,17,0.00
2013-8-11,84.3,73.4,64.0,66.3,59.8,57.2,81,64,43,29.95,29.82,10,4,18,0.02
2013-8-12,88.9,75.7,62.7,63.1,59.3,55.8,87,59,35,29.90,29.80,10,3,16,0.00
2013-8-13,89.3,76.5,65.3,71.7,58.5,41.4,86,57,32,29.92,29.77,9,2,15,0.09
2013-8-14,90.3,77.2,67.6,62.7,58.9,53.9,82,55,33,29.94,29.79,12,4,18,0.04
2013-8-15,88.9,76.8,65.5,60.1,57.2,52.9,77,53,31,29.92,29.82,8,2,12,0.00
2013-8-16,91.1,77.9,64.5,62.5,56.5,51.2,80,51,27,29.92,29.82,11,3,20,0.01
2013-8-17,93.1,79.3,63.6,62.3,56.4,45.8,79,50,20,29.92,29.79,9,3,30,0.00
2013-8-18,94.1,80.0,63.5,58.9,51.7,47.4,64,39,22,29.87,29.77,10,4,18,0.00
2013-8-19,92.3,80.5,69.6,58.2,51.7,47.7,52,38,22,29.88,29.75,12,3,19,0.00
2013-8-20,90.1,76.3,66.8,60.0,55.2,49.6,78,50,28,29.90,29.74,11,5,19,0.03
2013-8-21,87.7,73.9,61.0,69.7,57.5,52.6,82,59,33,29.91,29.80,14,3,23,0.25
2013-8-22,87.9,74.9,60.3,61.8,56.0,48.6,89,55,26,29.94,29.79,12,3,18,0.00
2013-8-23,87.2,75.0,62.1,60.8,54.8,50.8,93,53,30,29.86,29.70,10,5,18,0.26
2013-8-24,76.2,66.4,61.2,63.0,60.3,57.7,95,81,59,29.97,29.84,11,2,18,0.14
2013-8-25,84.1,71.2,62.1,67.1,61.9,58.3,89,74,45,30.00,29.87,14,2,24,0.02
2013-8-26,87.2,76.0,64.8,64.2,58.5,51.8,87,58,32,29.94,29.80,13,4,19,0.01
2013-8-27,87.8,76.5,65.3,58.5,54.6,49.1,66,48,28,29.87,29.73,11,4,30,0.00
2013-8-28,82.1,72.3,64.3,63.8,58.7,56.3,79,63,43,29.95,29.78,12,5,21,0.00
2013-8-29,77.6,67.7,62.5,65.2,62.5,61.0,97,84,61,30.06,29.91,10,2,22,1.48
2013-8-30,76.2,70.3,63.6,65.5,62.2,57.8,94,76,61,30.08,29.96,6,2,11,0.01
2013-8-31,87.1,73.9,59.1,65.8,60.5,56.7,94,65,37,29.99,29.82,9,3,14,0.00
2013-9-1,88.3,76.8,63.5,64.7,59.9,55.5,84,58,35,29.88,29.75,7,3,12,0.00
2013-9-2,89.0,77.7,65.3,63.1,57.6,53.7,81,52,31,29.90,29.74,8,3,14,0.00
2013-9-3,84.8,73.7,62.8,62.3,57.2,54.3,87,58,38,29.91,29.80,10,4,18,0.03
2013-9-4,86.9,76.2,65.2,61.0,53.2,47.7,74,47,27,29.96,29.82,12,4,20,0.00
2013-9-5,87.5,76.2,66.2,55.9,51.9,48.5,55,43,30,29.95,29.84,9,2,16,0.00
2013-9-6,86.3,74.3,66.7,62.3,54.5,49.4,73,51,33,29.95,29.81,13,3,23,0.06
2013-9-7,81.1,68.7,62.3,62.6,59.2,53.7,91,73,47,29.94,29.83,10,4,16,0.42
2013-9-8,77.9,66.5,60.9,65.7,61.4,57.9,95,84,58,29.91,29.76,16,2,24,0.49
2013-9-9,67.8,63.8,60.8,63.9,61.9,58.7,97,94,85,29.84,29.72,8,2,13,0.33
2013-9-10,77.3,67.8,60.2,63.1,59.2,55.4,97,76,50,29.91,29.79,8,3,15,0.00
2013-9-11,81.4,69.9,57.5,60.5,55.2,50.9,91,61,38,29.96,29.84,6,3,12,0.00
2013-9-12,81.6,69.9,59.2,63.6,58.9,52.1,90,69,50,29.87,29.72,17,3,33,0.90
2013-9-13,82.3,70.4,62.0,65.8,60.8,51.7,94,74,36,29.80,29.65,9,3,16,0.00
2013-9-14,83.0,71.1,60.0,63.3,59.6,54.6,94,69,39,29.77,29.67,6,2,14,0.00
2013-9-15,85.1,72.9,62.8,60.0,57.5,54.5,82,60,36,29.81,29.72,11,3,22,0.00
2013-9-16,83.6,73.5,64.3,61.1,58.2,56.3,75,60,40,29.87,29.75,10,4,21,0.00
2013-9-17,84.5,72.6,61.4,62.3,57.4,48.4,82,61,29,29.85,29.70,8,2,15,0.00
2013-9-18,87.3,75.3,62.1,61.7,53.7,43.1,85,51,28,29.78,29.63,8,2,13,0.00
2013-9-19,86.8,74.8,63.6,58.2,50.6,38.7,72,44,30,29.74,29.64,7,3,13,0.00
2013-9-20,85.4,69.7,60.1,62.1,57.5,52.1,88,67,39,29.91,29.74,10,3,16,0.07
2013-9-21,81.5,68.8,57.3,59.5,54.7,48.2,90,64,32,29.91,29.74,10,2,15,0.00
2013-9-22,81.9,70.2,58.9,61.5,53.8,41.4,79,58,37,29.76,29.61,13,5,22,0.00
2013-9-23,81.9,65.7,45.8,49.2,40.1,30.4,82,44,16,29.94,29.73,6,2,11,0.00
2013-9-24,84.8,69.2,49.0,46.2,38.5,28.4,55,34,18,30.00,29.84,8,3,24,0.00
2013-9-25,84.4,72.7,59.9,40.2,34.0,27.4,33,25,19,29.85,29.65,10,5,18,0.00
2013-9-26,81.2,69.3,52.1,54.3,39.5,27.9,65,35,24,29.77,29.67,12,5,24,0.00
2013-9-27,69.8,63.0,58.8,55.4,49.7,45.5,70,62,42,29.80,29.68,12,6,18,0.00
2013-9-28,75.7,63.8,50.5,44.8,38.8,30.8,59,41,30,30.08,29.93,8,3,14,0.00
2013-9-29,81.8,67.4,49.4,43.6,38.7,36.1,64,38,20,30.11,29.95,7,3,12,0.00
2013-9-30,83.0,67.9,47.8,42.4,34.9,27.1,63,33,15,29.98,29.85,8,4,14,0.00
2013-10-1,83.6,69.4,48.5,38.5,33.3,26.9,48,28,18,29.95,29.85,9,4,15,0.00
2013-10-2,80.6,69.9,59.6,43.3,38.4,31.2,46,33,17,29.92,29.80,7,4,15,0.00
2013-10-3,82.4,69.5,59.2,48.9,40.2,28.3,60,37,14,29.86,29.71,12,5,21,0.00
2013-10-4,78.9,66.0,50.4,49.8,40.4,28.3,80,43,16,29.95,29.78,12,5,22,0.00
2013-10-5,74.3,62.2,46.0,34.6,26.1,16.3,43,26,15,30.09,29.95,8,4,16,0.00
2013-10-6,76.4,62.4,45.9,26.1,21.6,16.3,39,22,13,30.16,30.05,10,4,17,0.00
2013-10-7,80.2,63.9,43.6,35.0,27.7,20.5,42,27,17,30.14,29.96,8,3,15,0.00
2013-10-8,79.0,68.2,57.2,39.7,32.4,27.3,36,27,19,29.96,29.77,10,4,19,0.00
2013-10-9,76.9,64.9,45.2,47.8,37.5,29.8,67,39,22,29.84,29.74,14,7,25,0.00
2013-10-10,67.2,58.4,41.4,48.4,40.5,32.5,79,53,28,29.92,29.71,19,8,32,0.00
2013-10-11,71.6,54.0,37.5,42.1,34.6,29.1,90,54,21,30.04,29.92,8,2,17,0.00
2013-10-12,77.5,61.5,41.2,40.1,34.2,27.6,69,39,16,30.03,29.91,11,4,20,0.00
2013-10-13,79.2,64.8,45.5,50.3,41.7,35.0,77,46,22,30.00,29.89,17,7,28,0.00
2013-10-14,74.6,63.8,53.1,53.1,46.0,33.3,81,55,33,29.97,29.88,10,4,19,0.00
2013-10-15,75.8,60.7,43.0,46.7,37.3,27.0,82,45,27,29.97,29.84,11,4,19,0.00
2013-10-16,73.0,59.2,46.8,27.5,21.1,11.7,40,24,13,30.06,29.96,9,4,18,0.00
2013-10-17,73.4,57.3,35.0,23.9,17.0,8.5,49,23,11,30.10,29.95,12,4,18,0.00
2013-10-18,73.5,57.4,37.5,25.6,19.9,13.7,46,25,14,30.05,29.95,8,3,14,0.00
2013-10-19,76.2,59.6,42.4,19.4,15.8,11.5,34,19,9,30.10,29.96,6,2,15,0.00
2013-10-20,74.5,61.1,40.8,21.9,14.8,7.8,37,18,8,30.00,29.88,9,4,15,0.00
2013-10-21,75.7,60.8,39.7,20.2,15.6,10.8,37,18,10,30.05,29.95,8,3,17,0.00
2013-10-22,75.8,60.5,43.5,26.4,21.0,14.5,39,23,12,30.11,29.99,10,3,15,0.00
2013-10-23,77.5,62.7,48.7,38.0,30.5,24.7,42,31,19,30.03,29.92,8,2,14,0.00
2013-10-24,79.1,65.2,48.1,42.4,34.8,26.9,57,35,19,30.02,29.89,11,4,21,0.00
2013-10-25,77.7,64.1,43.5,30.7,25.7,21.7,46,25,15,30.06,29.92,9,4,14,0.00
2013-10-26,75.0,60.1,40.9,30.5,25.6,18.0,50,29,12,30.14,30.05,7,2,13,0.00
2013-10-27,77.7,63.0,49.1,35.2,29.3,20.5,49,30,15,30.09,29.83,8,3,16,0.00
2013-10-28,70.3,61.1,48.1,32.1,27.5,18.8,46,29,15,29.95,29.83,14,6,25,0.00
2013-10-29,72.1,60.3,49.0,37.6,31.0,21.3,52,34,16,29.96,29.84,15,5,26,0.00
2013-10-30,67.5,54.4,43.3,41.9,35.2,27.3,68,49,25,30.05,29.86,13,6,24,0.00
2013-10-31,67.2,50.5,30.0,32.2,20.8,2.2,82,38,9,30.18,30.04,9,3,17,0.00
2013-11-1,68.9,53.0,31.1,23.7,18.0,9.7,47,26,17,30.24,30.12,7,2,12,0.00
2013-11-2,73.0,58.9,44.0,25.1,17.8,15.2,34,21,12,30.18,29.95,11,4,20,0.00
2013-11-3,70.5,58.9,47.7,51.9,42.7,26.6,81,56,28,29.95,29.77,13,5,27,0.03
2013-11-4,68.9,56.6,40.5,45.3,39.9,35.6,86,56,34,29.88,29.75,11,5,23,0.00
2013-11-5,63.2,53.3,43.9,44.3,37.1,30.8,81,56,31,30.15,29.84,9,4,18,0.00
2013-11-6,63.3,50.2,31.6,35.1,24.2,15.4,87,41,19,30.34,30.15,8,3,14,0.00
2013-11-7,67.6,53.5,36.8,30.9,22.7,11.5,50,31,22,30.35,30.18,13,4,23,0.00
2013-11-8,71.9,56.8,45.9,36.4,32.4,28.3,56,41,23,30.19,30.01,6,2,20,0.00
2013-11-9,73.5,57.9,39.3,37.8,32.7,28.5,66,41,25,30.16,30.06,6,2,12,0.00
2013-11-10,74.9,61.5,44.0,39.7,33.4,29.3,57,36,24,30.17,30.05,9,2,16,0.00
2013-11-11,75.6,63.0,49.5,40.4,37.1,34.3,59,40,26,30.12,30.00,7,2,13,0.00
2013-11-12,69.8,60.3,50.0,45.7,40.3,34.0,67,48,37,30.25,30.12,14,7,26,0.00
2013-11-13,64.5,53.1,43.6,43.3,40.4,37.7,80,63,45,30.26,30.11,10,4,16,0.00
2013-11-14,72.1,56.8,44.0,43.4,35.8,26.3,81,50,21,30.11,29.93,8,2,14,0.00
2013-11-15,64.5,57.0,47.3,50.0,44.1,31.5,83,63,45,29.93,29.70,17,7,27,0.00
2013-11-16,66.4,56.8,46.6,47.6,41.7,35.2,84,59,33,29.92,29.72,15,8,27,0.00
2013-11-17,66.9,54.6,43.3,45.1,41.1,36.7,93,64,36,30.11,29.92,10,3,21,0.00
2013-11-18,69.9,57.1,43.2,50.1,40.4,29.9,92,57,27,30.13,30.00,9,3,16,0.00
2013-11-19,72.0,56.7,38.1,42.4,34.4,23.4,80,47,17,30.05,29.88,10,4,16,0.00
2013-11-20,70.4,56.1,40.0,41.2,32.9,25.6,71,45,19,29.93,29.82,13,4,19,0.00
2013-11-21,66.2,54.6,37.6,46.0,40.9,31.7,82,61,45,29.99,29.90,11,4,20,0.00
2013-11-22,60.6,52.7,41.8,51.8,45.5,38.2,97,77,54,30.00,29.88,17,6,29,0.24
2013-11-23,41.5,38.4,36.2,38.2,36.6,34.6,96,93,87,30.24,29.99,11,6,17,0.24
2013-11-24,43.8,37.6,31.1,38.1,34.7,29.3,96,89,78,30.29,30.21,7,3,12,0.03
2013-11-25,49.7,37.7,25.7,39.4,32.3,24.2,96,82,62,30.40,30.25,7,2,12,0.01
2013-11-26,52.3,41.8,31.4,33.0,27.6,21.4,85,59,40,30.45,30.34,14,5,22,0.00
2013-11-27,49.9,41.5,33.8,25.0,22.6,20.3,66,47,35,30.39,30.18,10,5,15,0.00
2013-11-28,59.7,44.2,33.8,35.1,27.7,20.8,72,53,37,30.27,30.17,8,2,12,0.00
2013-11-29,64.3,51.2,40.1,39.8,36.0,31.1,72,57,39,30.30,30.08,8,2,13,0.00
2013-11-30,63.7,52.3,41.5,39.2,36.9,34.6,79,57,36,30.25,30.06,5,1,9,0.00
2013-12-1,63.8,54.8,45.3,40.1,34.7,23.0,67,48,27,30.24,30.15,6,1,10,0.00
2013-12-2,68.0,53.5,33.9,30.7,19.7,-0.6,73,33,10,30.17,29.94,8,4,14,0.00
2013-12-3,67.7,56.0,46.1,42.5,24.8,7.3,70,34,11,29.96,29.75,12,5,22,0.00
2013-12-4,61.8,52.7,45.1,43.0,34.4,20.5,74,53,22,29.89,29.66,18,10,28,0.00
2013-12-5,46.0,39.3,30.0,40.5,34.5,27.3,94,84,58,30.15,29.84,11,6,20,0.12
2013-12-6,46.5,34.6,22.2,28.8,25.5,18.8,92,71,44,30.30,30.14,5,2,10,0.01
2013-12-7,55.6,39.4,23.7,31.9,20.2,7.6,90,53,15,30.22,30.08,13,4,21,0.01
2013-12-8,50.5,39.6,30.3,31.9,27.7,17.2,81,63,44,30.19,30.08,9,5,15,0.00
2013-12-9,48.2,38.6,27.5,32.5,23.4,10.3,91,59,25,30.40,30.14,9,4,19,0.00
2013-12-10,51.0,41.4,30.3,23.1,15.2,8.0,48,35,27,30.40,30.25,9,3,14,0.00
2013-12-11,59.7,48.6,38.9,40.8,29.6,21.4,66,48,38,30.34,30.25,9,3,14,0.00
2013-12-12,56.3,46.7,40.0,45.1,34.7,21.8,91,64,41,30.31,30.13,9,4,14,0.01
2013-12-13,53.6,44.5,34.4,33.3,30.4,27.9,80,58,38,30.23,30.12,8,5,17,0.00
2013-12-14,53.8,40.4,26.2,29.5,23.4,19.3,86,54,27,30.38,30.22,8,3,15,0.00
2013-12-15,58.0,45.8,32.5,23.7,19.4,11.9,57,36,22,30.33,30.21,7,3,12,0.00
2013-12-16,65.5,52.3,34.3,21.4,18.5,15.1,50,27,16,30.26,30.16,6,2,13,0.00
2013-12-17,67.9,52.2,34.7,24.1,20.7,18.3,52,31,18,30.26,30.11,8,3,13,0.00
2013-12-18,60.8,51.2,39.0,24.7,19.9,15.3,56,30,19,30.12,29.85,5,2,10,0.00
2013-12-19,60.5,50.0,37.2,26.4,21.4,14.9,57,34,17,29.85,29.69,14,6,24,0.00
2013-12-20,45.8,39.5,33.2,37.7,31.3,21.1,94,74,44,29.80,29.56,11,6,19,0.09
2013-12-21,44.8,36.8,32.8,35.1,32.0,28.5,94,84,56,30.06,29.79,15,7,26,0.08
2013-12-22,50.2,37.9,28.2,36.2,30.7,24.8,94,77,44,30.31,30.07,10,3,15,0.00
2013-12-23,53.7,43.3,29.7,28.5,24.0,18.0,85,49,29,30.41,30.29,8,3,14,0.00
2013-12-24,57.9,43.2,28.8,25.7,22.3,16.8,69,45,28,30.29,30.12,7,2,11,0.00
2013-12-25,56.3,44.5,32.7,26.6,23.7,20.0,68,45,31,30.28,30.17,9,4,17,0.00
2013-12-26,52.2,40.5,27.1,24.2,21.0,17.4,69,48,32,30.30,30.19,9,3,14,0.00
2013-12-27,54.3,39.4,25.4,23.5,19.1,15.2,67,46,25,30.33,30.21,9,3,15,0.00
2013-12-28,55.5,42.9,30.9,27.2,22.6,17.1,71,46,27,30.24,29.99,7,2,11,0.00
2013-12-29,55.7,47.1,33.2,25.1,22.2,18.1,62,38,24,30.09,29.93,6,3,11,0.00
2013-12-30,58.2,45.2,30.7,24.4,19.2,8.4,62,37,14,30.26,30.09,7,2,13,0.00
2013-12-31,57.8,43.8,31.2,21.0,18.1,12.3,54,37,22,30.27,30.14,5,1,10,0.00
2014-1-1,65.4,46.3,32.1,21.4,18.6,15.2,56,36,17,30.19,30.07,5,2,9,0.00
2014-1-2,61.6,50.5,39.1,23.0,21.1,18.8,45,32,21,30.20,30.07,9,3,14,0.00